Terminal Aerodrome Forecast
Issued by NWS Grand Junction, CO

Home | Current Version | Previous Version | Text Only | Print | Product List | Glossary On
Versions: 1 2 3 4 5 6 7 8 9 10 11 12 13 14 15 16 17 18 19 20 21 22 23 24
000
FTUS45 KGJT 182328
TAFGJT
TAF
KGJT 182328Z 1900/1924 31007KT P6SM SKC
     FM190400 11007KT P6SM SCT050
     FM191800 15005KT P6SM BKN080
     FM192100 21004KT P6SM BKN025
     FM192300 VRB03KT P6SM VCSH BKN015=

USA.gov is the U.S. government's official web portal to all federal, state and local government web resources and services.